createdAt,value
2018-08-30T00:00:26.478Z,100669.70
2018-08-30T00:01:29.926Z,100676.63
2018-08-30T00:02:33.455Z,100673.27
2018-08-30T00:03:36.868Z,100673.27
2018-08-30T00:04:40.274Z,100674.08
2018-08-30T00:05:44.341Z,100677.66
2018-08-30T00:06:47.744Z,100677.88
2018-08-30T00:07:51.120Z,100678.47
2018-08-30T00:08:54.610Z,100681.23
2018-08-30T00:09:58.056Z,100684.00
2018-08-30T00:11:01.495Z,100680.11
2018-08-30T00:12:05.221Z,100690.61
2018-08-30T00:13:08.855Z,100690.61
2018-08-30T00:14:12.267Z,100686.45
2018-08-30T00:15:15.724Z,100695.80
2018-08-30T00:16:19.584Z,100695.80
2018-08-30T00:17:22.983Z,100693.83
2018-08-30T00:18:26.405Z,100695.22
2018-08-30T00:19:29.837Z,100704.56
2018-08-30T00:20:33.232Z,100696.83
2018-08-30T00:21:36.644Z,100705.14
2018-08-30T00:22:40.085Z,100705.72
2018-08-30T00:23:43.495Z,100704.56
2018-08-30T00:24:46.912Z,100705.95
2018-08-30T00:25:50.308Z,100712.07
2018-08-30T00:26:53.718Z,100708.72
2018-08-30T00:27:57.124Z,100707.55
2018-08-30T00:29:00.533Z,100709.52
2018-08-30T00:30:04.091Z,100715.88
2018-08-30T00:31:07.539Z,100716.45
2018-08-30T00:32:10.991Z,100718.41
2018-08-30T00:33:14.364Z,100716.45
2018-08-30T00:34:18.063Z,100720.61
2018-08-30T00:35:21.505Z,100717.61
2018-08-30T00:36:24.954Z,100717.84
2018-08-30T00:37:28.357Z,100726.16
2018-08-30T00:38:31.737Z,100726.95
2018-08-30T00:39:35.142Z,100733.53
2018-08-30T00:40:38.536Z,100736.30
2018-08-30T00:41:41.984Z,100735.50
2018-08-30T00:42:45.440Z,100739.08
2018-08-30T00:43:48.835Z,100747.61
2018-08-30T00:44:52.244Z,100747.39
2018-08-30T00:45:55.699Z,100746.00
2018-08-30T00:46:59.110Z,100753.16
2018-08-30T00:48:02.504Z,100753.96
2018-08-30T00:49:05.907Z,100751.77
2018-08-30T00:50:09.290Z,100758.70
2018-08-30T00:51:12.701Z,100761.47
2018-08-30T00:52:16.329Z,100753.96
2018-08-30T00:53:19.755Z,100755.93
2018-08-30T00:54:23.162Z,100759.50
2018-08-30T00:55:26.567Z,100756.73
2018-08-30T00:56:30.159Z,100764.47
2018-08-30T00:57:33.611Z,100760.31
2018-08-30T00:58:37.035Z,100762.28
2018-08-30T00:59:40.611Z,100762.28
2018-08-30T01:00:44.020Z,100768.86
2018-08-30T01:01:47.398Z,100770.24
2018-08-30T01:02:50.987Z,100768.63
2018-08-30T01:03:54.381Z,100774.40
2018-08-30T01:04:57.816Z,100774.40
2018-08-30T01:06:01.473Z,100768.86
2018-08-30T01:07:04.898Z,100768.27
2018-08-30T01:08:08.310Z,100773.02
2018-08-30T01:09:11.757Z,100779.36
2018-08-30T01:10:15.158Z,100780.75
2018-08-30T01:11:18.566Z,100785.71
2018-08-30T01:12:21.987Z,100780.17
2018-08-30T01:13:25.416Z,100787.09
2018-08-30T01:14:28.825Z,100784.33
2018-08-30T01:15:32.242Z,100787.09
2018-08-30T01:16:35.617Z,100791.25
2018-08-30T01:17:39.074Z,100790.90
2018-08-30T01:18:42.514Z,100788.71
2018-08-30T01:19:45.940Z,100788.94
2018-08-30T01:20:49.321Z,100789.52
2018-08-30T01:21:52.724Z,100786.52
2018-08-30T01:22:56.147Z,100788.71
2018-08-30T01:23:59.568Z,100788.12
2018-08-30T01:25:03.011Z,100787.33
2018-08-30T01:26:06.536Z,100787.09
2018-08-30T01:27:09.928Z,100790.09
2018-08-30T01:28:13.340Z,100786.52
2018-08-30T01:29:16.779Z,100787.09
2018-08-30T01:30:20.186Z,100785.71
2018-08-30T01:31:23.618Z,100788.71
2018-08-30T01:32:27.117Z,100790.45
2018-08-30T01:33:30.540Z,100791.25
2018-08-30T01:34:33.974Z,100790.67
2018-08-30T01:35:37.384Z,100795.06
2018-08-30T01:36:41.844Z,100795.06
2018-08-30T01:37:45.268Z,100792.52
2018-08-30T01:38:48.688Z,100793.09
2018-08-30T01:39:52.109Z,100800.60
2018-08-30T01:40:55.488Z,100795.06
2018-08-30T01:41:58.896Z,100800.02
2018-08-30T01:43:02.386Z,100798.41
2018-08-30T01:44:05.833Z,100793.67
2018-08-30T01:45:09.266Z,100798.64
2018-08-30T01:46:12.717Z,100801.19
2018-08-30T01:47:16.129Z,100800.60
2018-08-30T01:48:19.523Z,100809.14
2018-08-30T01:49:22.966Z,100803.95
2018-08-30T01:50:26.382Z,100799.80
2018-08-30T01:51:29.813Z,100805.56
2018-08-30T01:52:33.210Z,100811.47
2018-08-30T01:53:36.628Z,100809.50
2018-08-30T01:54:40.012Z,100808.11
2018-08-30T01:55:43.463Z,100809.50
2018-08-30T01:56:46.848Z,100816.66
2018-08-30T01:57:50.209Z,100815.04
2018-08-30T01:58:53.681Z,100812.27
2018-08-30T01:59:57.092Z,100813.08
2018-08-30T02:01:00.496Z,100815.04
2018-08-30T02:02:04.082Z,100812.84
2018-08-30T02:03:07.500Z,100818.39
2018-08-30T02:04:10.918Z,100819.55
2018-08-30T02:05:14.347Z,100814.36
2018-08-30T02:06:17.981Z,100817.36
2018-08-30T02:07:21.424Z,100819.33
2018-08-30T02:08:24.813Z,100818.30
2018-08-30T02:09:28.392Z,100817.13
2018-08-30T02:10:31.773Z,100822.67
2018-08-30T02:11:35.162Z,100824.06
2018-08-30T02:12:38.582Z,100817.71
2018-08-30T02:13:41.980Z,100821.06
2018-08-30T02:14:45.445Z,100818.88
2018-08-30T02:15:48.828Z,100820.48
2018-08-30T02:16:52.221Z,100819.45
2018-08-30T02:17:55.708Z,100818.88
2018-08-30T02:18:59.134Z,100816.91
2018-08-30T02:20:02.560Z,100819.09
2018-08-30T02:21:05.984Z,100826.03
2018-08-30T02:22:09.362Z,100824.64
2018-08-30T02:23:12.778Z,100823.25
2018-08-30T02:24:16.188Z,100819.67
2018-08-30T02:25:19.574Z,100827.99
2018-08-30T02:26:22.970Z,100828.58
2018-08-30T02:27:26.433Z,100827.77
2018-08-30T02:28:29.834Z,100827.77
2018-08-30T02:29:33.233Z,100829.95
2018-08-30T02:30:36.858Z,100831.92
2018-08-30T02:31:40.286Z,100835.50
2018-08-30T02:32:43.654Z,100829.38
2018-08-30T02:33:47.037Z,100827.99
2018-08-30T02:34:50.453Z,100832.15
2018-08-30T02:35:53.886Z,100829.95
2018-08-30T02:36:57.362Z,100828.80
2018-08-30T02:38:00.816Z,100827.77
2018-08-30T02:39:04.816Z,100820.26
2018-08-30T02:40:08.275Z,100827.19
2018-08-30T02:41:11.687Z,100833.77
2018-08-30T02:42:15.086Z,100831.34
2018-08-30T02:43:18.480Z,100834.92
2018-08-30T02:44:21.874Z,100836.30
2018-08-30T02:45:25.294Z,100839.89
2018-08-30T02:46:28.695Z,100837.92
2018-08-30T02:47:32.111Z,100842.08
2018-08-30T02:48:35.509Z,100840.92
2018-08-30T02:49:38.967Z,100843.69
2018-08-30T02:50:42.395Z,100845.66
2018-08-30T02:51:45.779Z,100841.72
2018-08-30T02:52:49.149Z,100843.11
2018-08-30T02:53:52.608Z,100850.63
2018-08-30T02:54:56.013Z,100850.05
2018-08-30T02:55:59.453Z,100849.46
2018-08-30T02:57:02.885Z,100852.23
2018-08-30T02:58:06.329Z,100849.23
2018-08-30T02:59:09.773Z,100853.39
2018-08-30T03:00:13.260Z,100856.16
2018-08-30T03:01:16.630Z,100852.00
2018-08-30T03:02:20.047Z,100852.81
2018-08-30T03:03:23.468Z,100850.63
2018-08-30T03:04:26.883Z,100850.63
2018-08-30T03:05:30.326Z,100847.84
2018-08-30T03:06:33.743Z,100850.39
2018-08-30T03:07:37.176Z,100853.74
2018-08-30T03:08:40.615Z,100855.13
2018-08-30T03:09:43.996Z,100850.17
2018-08-30T03:10:47.418Z,100851.55
2018-08-30T03:11:50.843Z,100855.48
2018-08-30T03:12:54.305Z,100851.33
2018-08-30T03:13:57.709Z,100853.87
2018-08-30T03:15:09.728Z,100855.25
2018-08-30T03:16:13.146Z,100859.99
2018-08-30T03:17:16.623Z,100860.57
2018-08-30T03:18:20.082Z,100863.12
2018-08-30T03:19:23.514Z,100856.53
2018-08-30T03:20:26.953Z,100865.43
2018-08-30T03:21:30.381Z,100870.17
2018-08-30T03:22:34.022Z,100865.78
2018-08-30T03:23:37.443Z,100867.17
2018-08-30T03:24:40.904Z,100868.78
2018-08-30T03:25:44.261Z,100875.22
2018-08-30T03:26:47.671Z,100873.61
2018-08-30T03:27:51.066Z,100873.61
2018-08-30T03:28:54.499Z,100875.58
2018-08-30T03:29:58.034Z,100874.19
2018-08-30T03:31:01.506Z,100876.16
2018-08-30T03:32:04.911Z,100872.58
2018-08-30T03:33:08.376Z,100874.89
2018-08-30T03:34:11.982Z,100875.47
2018-08-30T03:35:15.401Z,100877.43
2018-08-30T03:36:18.819Z,100881.01
2018-08-30T03:37:22.316Z,100872.47
2018-08-30T03:38:25.732Z,100875.23
2018-08-30T03:39:29.117Z,100878.59
2018-08-30T03:40:32.490Z,100876.17
2018-08-30T03:41:35.951Z,100880.33
2018-08-30T03:42:39.359Z,100883.91
2018-08-30T03:43:42.757Z,100880.91
2018-08-30T03:44:46.186Z,100885.06
2018-08-30T03:45:49.644Z,100886.80
2018-08-30T03:46:53.121Z,100885.18
2018-08-30T03:47:56.483Z,100883.22
2018-08-30T03:48:59.931Z,100885.76
2018-08-30T03:50:03.385Z,100888.53
2018-08-30T03:51:06.792Z,100886.34
2018-08-30T03:52:10.767Z,100888.53
2018-08-30T03:53:14.181Z,100884.14
2018-08-30T03:54:17.599Z,100878.61
2018-08-30T03:55:21.148Z,100877.22
2018-08-30T03:56:24.506Z,100878.83
2018-08-30T03:57:27.970Z,100884.02
2018-08-30T03:58:31.403Z,100882.64
2018-08-30T03:59:34.830Z,100888.29
2018-08-30T04:00:38.268Z,100881.81
2018-08-30T04:01:41.664Z,100886.20
2018-08-30T04:02:45.069Z,100890.59
2018-08-30T04:03:48.459Z,100895.20
2018-08-30T04:04:51.879Z,100894.97
2018-08-30T04:05:55.345Z,100896.81
2018-08-30T04:06:58.898Z,100891.84
2018-08-30T04:08:02.308Z,100892.66
2018-08-30T04:09:08.312Z,100896.50
2018-08-30T04:10:11.736Z,100891.53
2018-08-30T04:11:15.142Z,100901.23
2018-08-30T04:12:18.546Z,100897.30
2018-08-30T04:13:21.980Z,100897.87
2018-08-30T04:14:25.433Z,100898.46
2018-08-30T04:15:28.851Z,100900.66
2018-08-30T04:16:32.288Z,100900.16
2018-08-30T04:17:35.677Z,100898.78
2018-08-30T04:18:39.129Z,100905.70
2018-08-30T04:19:42.599Z,100900.52
2018-08-30T04:20:46.169Z,100901.90
2018-08-30T04:21:49.614Z,100904.09
2018-08-30T04:22:53.074Z,100907.44
2018-08-30T04:23:56.520Z,100903.64
2018-08-30T04:24:59.901Z,100901.67
2018-08-30T04:26:03.340Z,100902.83
2018-08-30T04:27:06.780Z,100904.80
2018-08-30T04:28:10.208Z,100907.56
2018-08-30T04:29:13.597Z,100911.48
2018-08-30T04:30:17.098Z,100916.23
2018-08-30T04:31:20.653Z,100912.30
2018-08-30T04:32:24.030Z,100915.65
2018-08-30T04:33:27.499Z,100914.84
2018-08-30T04:34:30.914Z,100914.61
2018-08-30T04:35:34.298Z,100915.77
2018-08-30T04:36:37.716Z,100919.92
2018-08-30T04:37:41.118Z,100920.05
2018-08-30T04:38:44.527Z,100919.23
2018-08-30T04:39:47.944Z,100927.78
2018-08-30T04:40:51.354Z,100923.62
2018-08-30T04:41:54.799Z,100921.20
2018-08-30T04:42:58.210Z,100919.59
2018-08-30T04:44:01.790Z,100927.55
2018-08-30T04:45:05.626Z,100920.97
2018-08-30T04:46:09.034Z,100926.86
2018-08-30T04:47:12.473Z,100928.25
2018-08-30T04:48:15.975Z,100929.63
2018-08-30T04:49:19.379Z,100936.79
2018-08-30T04:50:22.776Z,100934.59
2018-08-30T04:51:26.158Z,100933.79
2018-08-30T04:52:29.569Z,100933.21
2018-08-30T04:53:32.956Z,100935.17
2018-08-30T04:54:36.356Z,100938.17
2018-08-30T04:55:39.739Z,100936.79
2018-08-30T04:56:43.220Z,100931.56
2018-08-30T04:57:46.943Z,100932.63
2018-08-30T04:58:50.322Z,100934.59
2018-08-30T04:59:53.781Z,100936.56
2018-08-30T05:00:57.279Z,100938.75
2018-08-30T05:02:00.698Z,100940.72
2018-08-30T05:03:04.131Z,100938.17
2018-08-30T05:04:07.612Z,100945.91
2018-08-30T05:05:10.996Z,100945.33
2018-08-30T05:06:14.350Z,100947.52
2018-08-30T05:07:17.732Z,100949.14
2018-08-30T05:08:21.125Z,100948.11
2018-08-30T05:09:24.510Z,100950.75
2018-08-30T05:10:27.972Z,100958.03
2018-08-30T05:11:31.398Z,100960.11
2018-08-30T05:12:34.841Z,100955.72
2018-08-30T05:13:38.318Z,100956.18
2018-08-30T05:14:41.726Z,100961.38
2018-08-30T05:15:45.160Z,100958.95
2018-08-30T05:16:48.550Z,100963.34
2018-08-30T05:17:51.932Z,100959.18
2018-08-30T05:18:55.402Z,100959.75
2018-08-30T05:19:58.817Z,100961.14
2018-08-30T05:21:02.214Z,100964.72
2018-08-30T05:22:05.636Z,100963.56
2018-08-30T05:23:09.119Z,100956.64
2018-08-30T05:24:12.443Z,100959.41
2018-08-30T05:25:15.801Z,100961.95
2018-08-30T05:26:19.168Z,100960.34
2018-08-30T05:27:22.594Z,100962.64
2018-08-30T05:28:26.150Z,100963.22
2018-08-30T05:29:29.560Z,100957.80
2018-08-30T05:30:32.960Z,100960.34
2018-08-30T05:31:36.395Z,100961.73
2018-08-30T05:32:39.782Z,100964.27
2018-08-30T05:33:43.176Z,100965.39
2018-08-30T05:34:46.554Z,100968.16
2018-08-30T05:35:50.014Z,100966.55
2018-08-30T05:36:53.389Z,100969.31
2018-08-30T05:37:56.955Z,100975.44
2018-08-30T05:39:00.411Z,100968.16
2018-08-30T05:40:03.890Z,100965.39
2018-08-30T05:41:07.527Z,100972.58
2018-08-30T05:42:10.947Z,100972.58
2018-08-30T05:43:14.341Z,100971.42
2018-08-30T05:44:17.716Z,100978.00
2018-08-30T05:45:21.243Z,100977.89
2018-08-30T05:46:24.633Z,100971.54
2018-08-30T05:47:28.068Z,100979.50
2018-08-30T05:48:31.445Z,100978.47
2018-08-30T05:49:34.830Z,100983.66
2018-08-30T05:50:38.294Z,100978.12
2018-08-30T05:51:41.684Z,100980.89
2018-08-30T05:52:45.171Z,100986.43
2018-08-30T05:53:48.557Z,100987.81
2018-08-30T05:54:51.988Z,100988.63
2018-08-30T05:55:56.197Z,100979.50
2018-08-30T05:56:59.735Z,100983.89
2018-08-30T05:58:03.089Z,100986.66
2018-08-30T05:59:06.591Z,100994.39
2018-08-30T06:00:10.061Z,100987.81
2018-08-30T06:01:13.487Z,100995.55
2018-08-30T06:02:17.039Z,100992.55
2018-08-30T06:03:20.436Z,100985.27
2018-08-30T06:04:23.897Z,100988.97
2018-08-30T06:05:27.603Z,100994.52
2018-08-30T06:06:31.044Z,100989.78
2018-08-30T06:07:34.410Z,100990.94
2018-08-30T06:08:37.817Z,100990.36
2018-08-30T06:09:41.247Z,100994.86
2018-08-30T06:10:44.677Z,100995.20
2018-08-30T06:11:48.055Z,100997.17
2018-08-30T06:12:51.508Z,100994.75
2018-08-30T06:13:55.078Z,100994.75
2018-08-30T06:14:58.486Z,100992.52
2018-08-30T06:16:01.953Z,100987.55
2018-08-30T06:17:05.616Z,100993.59
2018-08-30T06:18:09.057Z,100997.52
2018-08-30T06:19:12.503Z,100997.03
2018-08-30T06:20:15.912Z,100998.98
2018-08-30T06:21:19.337Z,100997.95
2018-08-30T06:22:22.874Z,101005.34
2018-08-30T06:23:26.339Z,100999.91
2018-08-30T06:24:29.796Z,101008.57
2018-08-30T06:25:33.183Z,101010.41
2018-08-30T06:26:36.663Z,101014.08
2018-08-30T06:27:40.073Z,101016.84
2018-08-30T06:28:43.496Z,101012.99
2018-08-30T06:29:46.917Z,101020.22
2018-08-30T06:30:50.379Z,101015.60
2018-08-30T06:31:53.784Z,101011.64
2018-08-30T06:32:57.289Z,101015.78
2018-08-30T06:34:00.712Z,101016.00
2018-08-30T06:35:04.116Z,101020.34
2018-08-30T06:36:07.571Z,101023.21
2018-08-30T06:37:11.034Z,101021.81
2018-08-30T06:38:14.483Z,101024.34
2018-08-30T06:39:17.896Z,101024.11
2018-08-30T06:40:21.326Z,101026.38
2018-08-30T06:41:25.469Z,101027.77
2018-08-30T06:42:28.958Z,101023.72
2018-08-30T06:43:32.374Z,101024.30
2018-08-30T06:44:35.721Z,101024.63
2018-08-30T06:45:39.116Z,101032.23
2018-08-30T06:46:42.474Z,101036.39
2018-08-30T06:47:45.894Z,101032.00
2018-08-30T06:48:49.315Z,101035.34
2018-08-30T06:49:52.738Z,101037.88
2018-08-30T06:50:56.227Z,101033.83
2018-08-30T06:51:59.750Z,101032.75
2018-08-30T06:53:03.742Z,101036.67
2018-08-30T06:54:07.232Z,101033.54
2018-08-30T06:55:11.041Z,101034.69
2018-08-30T06:56:14.513Z,101033.41
2018-08-30T06:57:18.120Z,101034.89
2018-08-30T06:58:21.918Z,101037.09
2018-08-30T06:59:25.318Z,101029.54
2018-08-30T07:00:28.792Z,101037.66
2018-08-30T07:01:32.185Z,101045.72
2018-08-30T07:02:35.588Z,101037.19
2018-08-30T07:03:39.223Z,101036.92
2018-08-30T07:04:42.701Z,101043.84
2018-08-30T07:05:46.124Z,101040.27
2018-08-30T07:06:49.552Z,101046.61
2018-08-30T07:07:53.195Z,101047.52
2018-08-30T07:08:56.646Z,101050.05
2018-08-30T07:10:01.072Z,101047.52
2018-08-30T07:11:04.590Z,101048.67
2018-08-30T07:12:08.083Z,101053.86
2018-08-30T07:13:11.450Z,101051.44
2018-08-30T07:14:14.846Z,101055.81
2018-08-30T07:15:18.299Z,101053.28
2018-08-30T07:16:21.869Z,101054.91
2018-08-30T07:17:25.379Z,101060.70
2018-08-30T07:18:28.871Z,101057.60
2018-08-30T07:19:32.380Z,101058.41
2018-08-30T07:20:35.901Z,101065.80
2018-08-30T07:21:39.296Z,101064.89
2018-08-30T07:22:42.720Z,101069.27
2018-08-30T07:23:46.102Z,101068.70
2018-08-30T07:24:49.474Z,101071.94
2018-08-30T07:25:52.880Z,101075.17
2018-08-30T07:26:56.322Z,101067.68
2018-08-30T07:27:59.790Z,101069.06
2018-08-30T07:29:03.232Z,101072.88
2018-08-30T07:30:09.867Z,101061.80
2018-08-30T07:31:13.262Z,101070.38
2018-08-30T07:32:16.644Z,101067.84
2018-08-30T07:33:20.013Z,101074.76
2018-08-30T07:34:23.534Z,101077.77
2018-08-30T07:35:26.925Z,101073.03
2018-08-30T07:36:30.351Z,101073.50
2018-08-30T07:37:33.776Z,101074.66
2018-08-30T07:38:37.171Z,101077.66
2018-08-30T07:39:40.574Z,101079.04
2018-08-30T07:40:43.985Z,101077.89
2018-08-30T07:41:47.391Z,101075.70
2018-08-30T07:42:50.810Z,101080.66
2018-08-30T07:43:54.333Z,101076.51
2018-08-30T07:44:57.773Z,101082.05
2018-08-30T07:46:01.309Z,101082.28
2018-08-30T07:47:05.056Z,101089.20
2018-08-30T07:48:08.480Z,101087.00
2018-08-30T07:49:11.942Z,101088.63
2018-08-30T07:50:15.414Z,101088.96
2018-08-30T07:51:18.859Z,101094.16
2018-08-30T07:52:22.268Z,101091.73
2018-08-30T07:53:25.893Z,101090.92
2018-08-30T07:54:29.378Z,101096.69
2018-08-30T07:55:32.798Z,101092.54
2018-08-30T07:56:36.216Z,101100.03
2018-08-30T07:57:39.609Z,101105.56
2018-08-30T07:58:43.029Z,101097.16
2018-08-30T07:59:46.428Z,101100.50
2018-08-30T08:00:49.951Z,101103.27
2018-08-30T08:01:53.322Z,101099.35
2018-08-30T08:02:56.729Z,101107.42
2018-08-30T08:04:00.150Z,101103.27
2018-08-30T08:05:03.774Z,101104.08
2018-08-30T08:06:07.380Z,101103.27
2018-08-30T08:07:11.057Z,101098.44
2018-08-30T08:08:14.648Z,101100.73
2018-08-30T08:09:18.034Z,101109.27
2018-08-30T08:10:21.441Z,101107.66
2018-08-30T08:11:24.850Z,101110.66
2018-08-30T08:12:28.233Z,101107.66
2018-08-30T08:13:31.700Z,101114.58
2018-08-30T08:14:36.015Z,101109.04
2018-08-30T08:15:40.122Z,101110.05
2018-08-30T08:16:44.445Z,101116.43
2018-08-30T08:17:49.788Z,101114.58
2018-08-30T08:18:53.246Z,101116.77
2018-08-30T08:19:57.092Z,101112.85
2018-08-30T08:21:00.886Z,101113.66
2018-08-30T08:22:05.987Z,101117.81
2018-08-30T08:23:09.767Z,101114.70
2018-08-30T08:24:13.399Z,101112.98
2018-08-30T08:25:17.103Z,101119.02
2018-08-30T08:26:20.829Z,101122.83
2018-08-30T08:27:24.908Z,101122.49
2018-08-30T08:28:28.744Z,101118.58
2018-08-30T08:29:32.384Z,101120.43
2018-08-30T08:30:36.039Z,101120.66
2018-08-30T08:31:39.711Z,101120.91
2018-08-30T08:32:43.247Z,101122.52
2018-08-30T08:33:47.210Z,101125.52
2018-08-30T08:34:50.970Z,101116.07
2018-08-30T08:35:55.386Z,101124.38
2018-08-30T08:36:59.159Z,101123.80
2018-08-30T08:38:02.980Z,101119.88
2018-08-30T08:39:07.674Z,101122.08
2018-08-30T08:40:11.177Z,101120.96
2018-08-30T08:41:15.098Z,101118.42
2018-08-30T08:42:18.500Z,101125.58
2018-08-30T08:43:21.912Z,101124.20
2018-08-30T08:44:25.728Z,101128.58
2018-08-30T08:45:29.207Z,101128.58
2018-08-30T08:46:32.653Z,101125.42
2018-08-30T08:47:36.333Z,101132.50
2018-08-30T08:48:39.760Z,101138.03
2018-08-30T08:49:43.187Z,101129.73
2018-08-30T08:50:46.666Z,101136.08
2018-08-30T08:51:50.099Z,101136.99
2018-08-30T08:52:53.777Z,101121.37
2018-08-30T08:53:57.246Z,101133.08
2018-08-30T08:55:00.857Z,101132.73
2018-08-30T08:56:04.780Z,101138.27
2018-08-30T08:57:08.185Z,101135.73
2018-08-30T08:58:11.594Z,101137.94
2018-08-30T08:59:15.199Z,101150.86
2018-08-30T09:00:18.896Z,101145.33
2018-08-30T09:01:22.370Z,101148.91
2018-08-30T09:02:26.264Z,101140.59
2018-08-30T09:03:29.694Z,101144.17
2018-08-30T09:04:33.169Z,101142.22
2018-08-30T09:05:36.582Z,101141.06
2018-08-30T09:06:39.958Z,101144.41
2018-08-30T09:07:43.475Z,101141.30
2018-08-30T09:08:46.830Z,101148.22
2018-08-30T09:09:50.461Z,101142.92
2018-08-30T09:10:53.981Z,101138.77
2018-08-30T09:11:57.427Z,101139.00
2018-08-30T09:13:00.860Z,101141.77
2018-08-30T09:14:04.701Z,101136.23
2018-08-30T09:15:08.216Z,101145.58
2018-08-30T09:16:11.617Z,101146.42
2018-08-30T09:17:15.083Z,101139.23
2018-08-30T09:18:18.564Z,101146.16
2018-08-30T09:19:21.984Z,101143.89
2018-08-30T09:20:25.393Z,101145.27
2018-08-30T09:21:28.801Z,101141.70
2018-08-30T09:22:32.216Z,101141.13
2018-08-30T09:23:35.632Z,101146.66
2018-08-30T09:24:39.109Z,101148.63
2018-08-30T09:25:42.506Z,101145.04
2018-08-30T09:26:45.958Z,101143.08
2018-08-30T09:27:49.364Z,101143.89
2018-08-30T09:28:52.793Z,101142.00
2018-08-30T09:29:56.906Z,101149.19
2018-08-30T09:31:00.390Z,101149.73
2018-08-30T09:32:03.868Z,101150.31
2018-08-30T09:33:07.664Z,101146.97
2018-08-30T09:34:11.242Z,101143.97
2018-08-30T09:35:14.686Z,101146.50
2018-08-30T09:36:18.082Z,101143.66
2018-08-30T09:37:22.133Z,101147.81
2018-08-30T09:38:25.722Z,101148.13
2018-08-30T09:39:29.365Z,101148.13
2018-08-30T09:40:32.819Z,101143.16
2018-08-30T09:41:36.544Z,101147.31
2018-08-30T09:42:39.962Z,101148.45
2018-08-30T09:43:43.403Z,101144.30
2018-08-30T09:44:46.869Z,101144.07
2018-08-30T09:45:50.311Z,101147.08
2018-08-30T09:46:53.754Z,101139.91
2018-08-30T09:47:57.278Z,101147.98
2018-08-30T09:49:00.766Z,101150.99
2018-08-30T09:50:04.291Z,101150.52
2018-08-30T09:51:07.722Z,101156.06
2018-08-30T09:52:11.237Z,101149.95
2018-08-30T09:53:14.641Z,101151.09
2018-08-30T09:54:18.068Z,101153.62
2018-08-30T09:55:21.525Z,101151.44
2018-08-30T09:56:24.962Z,101149.81
2018-08-30T09:57:28.451Z,101145.43
2018-08-30T09:58:31.821Z,101143.70
2018-08-30T09:59:35.266Z,101147.05
2018-08-30T10:00:44.053Z,101141.72
2018-08-30T10:01:49.822Z,101149.14
2018-08-30T10:02:53.206Z,101149.71
2018-08-30T10:03:56.798Z,101149.48
2018-08-30T10:05:00.314Z,101153.97
2018-08-30T10:06:03.732Z,101147.05
2018-08-30T10:07:07.174Z,101150.62
2018-08-30T10:08:10.600Z,101155.35
2018-08-30T10:09:14.118Z,101151.78
2018-08-30T10:10:17.538Z,101145.90
2018-08-30T10:11:20.988Z,101148.67
2018-08-30T10:12:24.475Z,101148.09
2018-08-30T10:13:27.874Z,101153.39
2018-08-30T10:14:31.374Z,101150.62
2018-08-30T10:15:34.790Z,101150.29
2018-08-30T10:16:38.192Z,101149.48
2018-08-30T10:17:41.661Z,101148.67
2018-08-30T10:18:45.074Z,101150.05
2018-08-30T10:19:48.489Z,101154.20
2018-08-30T10:20:51.854Z,101155.02
2018-08-30T10:21:55.329Z,101158.36
2018-08-30T10:22:58.825Z,101160.31
2018-08-30T10:24:02.253Z,101161.12
2018-08-30T10:25:05.977Z,101159.74
2018-08-30T10:26:09.386Z,101158.36
2018-08-30T10:27:12.789Z,101156.97
2018-08-30T10:28:16.171Z,101155.59
2018-08-30T10:29:19.600Z,101153.05
2018-08-30T10:30:23.038Z,101158.59
2018-08-30T10:31:26.550Z,101160.21
2018-08-30T10:32:29.947Z,101158.02
2018-08-30T10:33:33.332Z,101161.59
2018-08-30T10:34:36.772Z,101154.67
2018-08-30T10:35:40.158Z,101155.48
2018-08-30T10:36:43.606Z,101158.02
2018-08-30T10:37:46.995Z,101157.20
2018-08-30T10:38:50.437Z,101154.67
2018-08-30T10:39:53.826Z,101154.44
2018-08-30T10:40:57.280Z,101153.62
2018-08-30T10:42:00.746Z,101151.44
2018-08-30T10:43:04.317Z,101153.39
2018-08-30T10:44:07.705Z,101146.48
2018-08-30T10:45:11.088Z,101151.20
2018-08-30T10:46:14.505Z,101152.59
2018-08-30T10:47:17.911Z,101156.73
2018-08-30T10:48:21.467Z,101162.85
2018-08-30T10:49:25.210Z,101160.89
2018-08-30T10:50:28.617Z,101160.89
2018-08-30T10:51:32.045Z,101168.39
2018-08-30T10:52:35.431Z,101164.81
2018-08-30T10:53:38.873Z,101165.05
2018-08-30T10:54:42.262Z,101156.50
2018-08-30T10:55:45.726Z,101155.35
2018-08-30T10:56:49.195Z,101163.66
2018-08-30T10:57:52.706Z,101159.17
2018-08-30T10:58:56.159Z,101159.17
2018-08-30T10:59:59.645Z,101168.86
2018-08-30T11:01:03.068Z,101166.90
2018-08-30T11:02:06.577Z,101162.75
2018-08-30T11:03:10.036Z,101158.59
2018-08-30T11:04:13.584Z,101161.59
2018-08-30T11:05:16.986Z,101158.59
2018-08-30T11:06:20.490Z,101159.98
2018-08-30T11:07:23.984Z,101160.31
2018-08-30T11:08:27.527Z,101158.36
2018-08-30T11:09:30.951Z,101158.13
2018-08-30T11:10:34.359Z,101165.28
2018-08-30T11:11:37.819Z,101160.89
2018-08-30T11:12:41.314Z,101162.04
2018-08-30T11:13:44.743Z,101167.34
2018-08-30T11:14:48.188Z,101168.16
2018-08-30T11:15:51.586Z,101171.39
2018-08-30T11:16:55.036Z,101170.92
2018-08-30T11:17:58.525Z,101170.34
2018-08-30T11:19:01.958Z,101173.92
2018-08-30T11:20:05.655Z,101170.34
2018-08-30T11:21:09.132Z,101168.96
2018-08-30T11:22:12.533Z,101173.92
2018-08-30T11:23:15.975Z,101174.73
2018-08-30T11:24:19.359Z,101170.01
2018-08-30T11:25:22.809Z,101173.59
2018-08-30T11:26:26.233Z,101163.89
2018-08-30T11:27:29.744Z,101168.28
2018-08-30T11:28:33.199Z,101166.66
2018-08-30T11:29:36.621Z,101170.24
2018-08-30T11:30:40.217Z,101169.91
2018-08-30T11:31:43.628Z,101171.05
2018-08-30T11:32:47.032Z,101164.12
2018-08-30T11:33:50.440Z,101171.05
2018-08-30T11:34:53.839Z,101172.09
2018-08-30T11:35:57.239Z,101164.60
2018-08-30T11:37:00.696Z,101175.67
2018-08-30T11:38:04.156Z,101175.67
2018-08-30T11:39:08.072Z,101169.56
2018-08-30T11:40:11.513Z,101173.14
2018-08-30T11:41:14.994Z,101175.10
2018-08-30T11:42:18.438Z,101171.76
2018-08-30T11:43:21.907Z,101174.77
2018-08-30T11:44:25.324Z,101175.00
2018-08-30T11:45:28.778Z,101173.38
2018-08-30T11:46:32.208Z,101176.95
2018-08-30T11:47:35.664Z,101171.42
2018-08-30T11:48:39.083Z,101173.61
2018-08-30T11:49:42.498Z,101175.81
2018-08-30T11:50:45.908Z,101168.65
2018-08-30T11:51:49.382Z,101170.03
2018-08-30T11:52:52.784Z,101167.50
2018-08-30T11:53:56.359Z,101169.70
2018-08-30T11:54:59.918Z,101171.66
2018-08-30T11:56:03.363Z,101175.81
2018-08-30T11:57:06.817Z,101175.81
2018-08-30T11:58:10.253Z,101171.08
2018-08-30T11:59:13.671Z,101175.00
2018-08-30T12:00:17.070Z,101177.77
2018-08-30T12:01:21.538Z,101176.15
2018-08-30T12:02:25.227Z,101175.81
2018-08-30T12:03:28.827Z,101178.58
2018-08-30T12:04:32.461Z,101179.15